sensor_id;sensor_type;location;lat;lon;timestamp;pressure;altitude;pressure_sealevel;temperature;humidity
50650;BME280;36621;60.058;30.346;2023-01-31T00:05:45;97479.06;;;3.46;71.71
50650;BME280;36621;60.058;30.346;2023-01-31T00:13:17;97475.66;;;3.54;71.58
50650;BME280;36621;60.058;30.346;2023-01-31T00:20:49;97470.31;;;3.40;71.31
50650;BME280;36621;60.058;30.346;2023-01-31T00:28:22;97482.44;;;3.52;71.96
50650;BME280;36621;60.058;30.346;2023-01-31T00:35:54;97488.75;;;3.47;71.49
50650;BME280;36621;60.058;30.346;2023-01-31T00:43:28;97487.41;;;3.36;71.68
50650;BME280;36621;60.058;30.346;2023-01-31T00:51:00;97522.84;;;3.29;72.00
50650;BME280;36621;60.058;30.346;2023-01-31T00:58:33;97530.47;;;3.27;71.53
50650;BME280;36621;60.058;30.346;2023-01-31T01:06:06;97528.50;;;3.05;71.86
50650;BME280;36621;60.058;30.346;2023-01-31T01:13:40;97545.78;;;3.04;71.51
50650;BME280;36621;60.058;30.346;2023-01-31T01:21:14;97545.47;;;2.91;72.36
50650;BME280;36621;60.058;30.346;2023-01-31T01:28:47;97547.69;;;2.89;73.35
50650;BME280;36621;60.058;30.346;2023-01-31T01:36:19;97551.47;;;2.88;73.15
50650;BME280;36621;60.058;30.346;2023-01-31T01:43:54;97556.66;;;2.85;73.55
50650;BME280;36621;60.058;30.346;2023-01-31T01:51:27;97533.31;;;2.66;73.45
50650;BME280;36621;60.058;30.346;2023-01-31T01:59:06;97574.53;;;2.81;74.08
50650;BME280;36621;60.058;30.346;2023-01-31T02:06:42;97565.81;;;2.70;74.10
50650;BME280;36621;60.058;30.346;2023-01-31T02:14:15;97590.66;;;2.67;74.42
50650;BME280;36621;60.058;30.346;2023-01-31T02:22:04;97593.69;;;2.79;75.08
50650;BME280;36621;60.058;30.346;2023-01-31T02:29:46;97613.16;;;3.18;74.32
50650;BME280;36621;60.058;30.346;2023-01-31T02:37:31;97592.94;;;2.46;74.19
50650;BME280;36621;60.058;30.346;2023-01-31T02:45:10;97618.13;;;2.69;73.99
50650;BME280;36621;60.058;30.346;2023-01-31T02:52:52;97624.50;;;2.73;74.21
50650;BME280;36621;60.058;30.346;2023-01-31T03:00:29;97633.09;;;2.75;73.53
50650;BME280;36621;60.058;30.346;2023-01-31T03:08:04;97657.41;;;2.70;72.88
50650;BME280;36621;60.058;30.346;2023-01-31T03:15:48;97660.63;;;2.72;73.42
50650;BME280;36621;60.058;30.346;2023-01-31T03:23:46;97676.75;;;2.58;73.04
50650;BME280;36621;60.058;30.346;2023-01-31T03:31:29;97678.84;;;2.61;72.90
50650;BME280;36621;60.058;30.346;2023-01-31T03:39:12;97682.59;;;2.46;73.10
50650;BME280;36621;60.058;30.346;2023-01-31T03:46:49;97710.47;;;2.55;72.24
50650;BME280;36621;60.058;30.346;2023-01-31T03:54:27;97717.16;;;2.58;72.69
50650;BME280;36621;60.058;30.346;2023-01-31T04:02:01;97724.28;;;3.01;73.10
50650;BME280;36621;60.058;30.346;2023-01-31T04:09:37;97726.09;;;2.72;71.38
50650;BME280;36621;60.058;30.346;2023-01-31T04:17:09;97716.81;;;2.46;71.49
50650;BME280;36621;60.058;30.346;2023-01-31T04:24:41;97759.97;;;2.59;71.09
50650;BME280;36621;60.058;30.346;2023-01-31T04:32:13;97756.75;;;2.57;71.44
50650;BME280;36621;60.058;30.346;2023-01-31T04:39:46;97769.28;;;2.48;71.18
50650;BME280;36621;60.058;30.346;2023-01-31T04:47:18;97682.47;;;1.80;71.10
50650;BME280;36621;60.058;30.346;2023-01-31T04:55:12;97672.25;;;1.82;72.01
50650;BME280;36621;60.058;30.346;2023-01-31T05:02:51;97770.06;;;2.30;71.11
50650;BME280;36621;60.058;30.346;2023-01-31T05:10:27;97796.34;;;2.38;71.38
50650;BME280;36621;60.058;30.346;2023-01-31T05:17:59;97814.72;;;2.36;71.04
50650;BME280;36621;60.058;30.346;2023-01-31T05:25:35;97804.41;;;2.19;71.13
50650;BME280;36621;60.058;30.346;2023-01-31T05:33:07;97830.19;;;2.25;71.36
50650;BME280;36621;60.058;30.346;2023-01-31T05:40:40;97849.72;;;2.36;70.95
50650;BME280;36621;60.058;30.346;2023-01-31T05:48:12;97846.25;;;2.11;70.79
50650;BME280;36621;60.058;30.346;2023-01-31T05:55:44;97846.38;;;2.01;71.24
50650;BME280;36621;60.058;30.346;2023-01-31T06:03:18;97859.75;;;2.06;70.37
50650;BME280;36621;60.058;30.346;2023-01-31T06:10:50;97892.38;;;2.23;70.64
50650;BME280;36621;60.058;30.346;2023-01-31T06:18:22;97913.91;;;2.23;70.66
50650;BME280;36621;60.058;30.346;2023-01-31T06:25:55;97920.31;;;2.03;71.12
50650;BME280;36621;60.058;30.346;2023-01-31T06:33:28;97925.13;;;2.06;71.13
50650;BME280;36621;60.058;30.346;2023-01-31T06:41:01;97931.16;;;2.22;71.63
50650;BME280;36621;60.058;30.346;2023-01-31T06:48:33;97944.41;;;2.19;71.59
50650;BME280;36621;60.058;30.346;2023-01-31T06:56:09;97943.53;;;2.23;71.49
50650;BME280;36621;60.058;30.346;2023-01-31T07:03:44;97929.34;;;1.94;71.04
50650;BME280;36621;60.058;30.346;2023-01-31T07:11:16;97978.91;;;2.17;71.26
50650;BME280;36621;60.058;30.346;2023-01-31T07:18:50;97959.19;;;2.21;70.70
50650;BME280;36621;60.058;30.346;2023-01-31T07:26:24;97998.94;;;2.30;70.68
50650;BME280;36621;60.058;30.346;2023-01-31T07:33:56;97997.84;;;2.31;70.39
50650;BME280;36621;60.058;30.346;2023-01-31T07:41:29;98008.00;;;2.39;70.47
50650;BME280;36621;60.058;30.346;2023-01-31T07:49:01;97982.97;;;2.09;70.38
50650;BME280;36621;60.058;30.346;2023-01-31T07:56:35;98051.56;;;2.46;70.29
50650;BME280;36621;60.058;30.346;2023-01-31T08:04:10;98051.31;;;2.42;69.96
50650;BME280;36621;60.058;30.346;2023-01-31T08:11:43;98060.59;;;2.31;69.97
50650;BME280;36621;60.058;30.346;2023-01-31T08:19:15;98092.00;;;2.41;69.97
50650;BME280;36621;60.058;30.346;2023-01-31T08:26:48;98113.31;;;2.37;70.09
50650;BME280;36621;60.058;30.346;2023-01-31T08:34:20;98125.16;;;2.36;70.17
50650;BME280;36621;60.058;30.346;2023-01-31T08:41:54;98141.84;;;2.38;69.94
50650;BME280;36621;60.058;30.346;2023-01-31T08:49:26;98115.69;;;2.10;70.06
50650;BME280;36621;60.058;30.346;2023-01-31T08:56:58;98153.78;;;2.27;69.86
50650;BME280;36621;60.058;30.346;2023-01-31T09:04:30;98122.38;;;2.12;69.60
50650;BME280;36621;60.058;30.346;2023-01-31T09:12:04;98175.88;;;2.58;69.67
50650;BME280;36621;60.058;30.346;2023-01-31T09:19:36;98185.00;;;2.63;68.54
50650;BME280;36621;60.058;30.346;2023-01-31T09:27:08;98189.03;;;2.65;68.58
50650;BME280;36621;60.058;30.346;2023-01-31T09:34:40;98213.59;;;2.58;68.33
50650;BME280;36621;60.058;30.346;2023-01-31T09:42:19;98223.28;;;2.59;69.06
50650;BME280;36621;60.058;30.346;2023-01-31T09:49:57;98210.34;;;2.27;69.66
50650;BME280;36621;60.058;30.346;2023-01-31T09:57:39;98257.53;;;2.54;69.19
50650;BME280;36621;60.058;30.346;2023-01-31T10:05:20;98265.31;;;2.60;68.46
50650;BME280;36621;60.058;30.346;2023-01-31T10:12:57;98189.19;;;2.05;68.10
50650;BME280;36621;60.058;30.346;2023-01-31T10:20:36;98278.84;;;2.50;67.81
50650;BME280;36621;60.058;30.346;2023-01-31T10:28:13;98287.50;;;2.42;67.35
50650;BME280;36621;60.058;30.346;2023-01-31T10:35:47;98311.69;;;2.52;65.83
50650;BME280;36621;60.058;30.346;2023-01-31T10:43:30;98317.50;;;2.70;67.82
50650;BME280;36621;60.058;30.346;2023-01-31T10:51:10;98334.78;;;2.69;67.57
50650;BME280;36621;60.058;30.346;2023-01-31T10:58:49;98329.47;;;2.53;67.95
50650;BME280;36621;60.058;30.346;2023-01-31T11:06:23;98366.63;;;2.51;67.78
50650;BME280;36621;60.058;30.346;2023-01-31T11:13:57;98359.69;;;2.45;67.91
50650;BME280;36621;60.058;30.346;2023-01-31T11:21:32;98372.53;;;2.58;67.85
50650;BME280;36621;60.058;30.346;2023-01-31T11:29:11;98367.25;;;2.43;68.53
50650;BME280;36621;60.058;30.346;2023-01-31T11:36:47;98392.81;;;2.40;66.72
50650;BME280;36621;60.058;30.346;2023-01-31T11:44:21;98401.44;;;2.42;66.83
50650;BME280;36621;60.058;30.346;2023-01-31T11:51:54;98392.31;;;2.28;66.28
50650;BME280;36621;60.058;30.346;2023-01-31T11:59:28;98423.28;;;2.36;65.87
50650;BME280;36621;60.058;30.346;2023-01-31T12:07:03;98433.50;;;2.34;65.52
50650;BME280;36621;60.058;30.346;2023-01-31T12:14:39;98439.63;;;2.50;67.54
50650;BME280;36621;60.058;30.346;2023-01-31T12:22:16;98467.97;;;2.37;67.06
50650;BME280;36621;60.058;30.346;2023-01-31T12:38:16;98458.56;;;2.34;66.51
50650;BME280;36621;60.058;30.346;2023-01-31T12:46:01;98490.34;;;2.37;65.63
50650;BME280;36621;60.058;30.346;2023-01-31T12:53:50;98493.84;;;2.28;66.44
50650;BME280;36621;60.058;30.346;2023-01-31T13:01:33;98510.56;;;2.24;66.20
50650;BME280;36621;60.058;30.346;2023-01-31T13:09:11;98508.97;;;2.08;64.61
50650;BME280;36621;60.058;30.346;2023-01-31T13:16:51;98522.94;;;2.05;65.47
50650;BME280;36621;60.058;30.346;2023-01-31T13:24:28;98537.78;;;2.02;64.43
50650;BME280;36621;60.058;30.346;2023-01-31T13:32:04;98546.63;;;2.39;67.44
50650;BME280;36621;60.058;30.346;2023-01-31T13:39:43;98556.88;;;1.85;64.99
50650;BME280;36621;60.058;30.346;2023-01-31T13:47:20;98549.91;;;1.89;64.51
50650;BME280;36621;60.058;30.346;2023-01-31T13:54:57;98573.03;;;1.85;65.48
50650;BME280;36621;60.058;30.346;2023-01-31T14:02:30;98581.38;;;1.84;63.68
50650;BME280;36621;60.058;30.346;2023-01-31T14:10:27;98601.00;;;1.95;66.12
50650;BME280;36621;60.058;30.346;2023-01-31T14:18:00;98616.34;;;1.73;62.86
50650;BME280;36621;60.058;30.346;2023-01-31T14:25:40;98606.34;;;1.69;65.24
50650;BME280;36621;60.058;30.346;2023-01-31T14:33:19;98616.63;;;1.82;64.14
50650;BME280;36621;60.058;30.346;2023-01-31T14:40:59;98618.19;;;1.73;64.20
50650;BME280;36621;60.058;30.346;2023-01-31T14:48:54;98648.94;;;1.93;65.47
50650;BME280;36621;60.058;30.346;2023-01-31T14:56:46;98658.59;;;1.78;64.49
50650;BME280;36621;60.058;30.346;2023-01-31T15:04:24;98675.03;;;1.87;64.31
50650;BME280;36621;60.058;30.346;2023-01-31T15:11:57;98669.09;;;1.80;64.10
50650;BME280;36621;60.058;30.346;2023-01-31T15:19:34;98636.22;;;1.62;65.47
50650;BME280;36621;60.058;30.346;2023-01-31T15:27:16;98676.31;;;1.74;65.23
50650;BME280;36621;60.058;30.346;2023-01-31T15:34:55;98703.28;;;1.95;65.17
50650;BME280;36621;60.058;30.346;2023-01-31T15:42:30;98711.91;;;1.91;64.15
50650;BME280;36621;60.058;30.346;2023-01-31T15:50:12;98711.91;;;1.97;66.07
50650;BME280;36621;60.058;30.346;2023-01-31T15:57:48;98728.06;;;2.02;65.97
50650;BME280;36621;60.058;30.346;2023-01-31T16:05:26;98734.53;;;2.01;65.34
50650;BME280;36621;60.058;30.346;2023-01-31T16:13:00;98715.94;;;1.99;65.61
50650;BME280;36621;60.058;30.346;2023-01-31T16:20:38;98737.81;;;2.18;65.54
50650;BME280;36621;60.058;30.346;2023-01-31T16:28:11;98743.19;;;2.23;65.75
50650;BME280;36621;60.058;30.346;2023-01-31T16:35:43;98752.31;;;2.12;64.91
50650;BME280;36621;60.058;30.346;2023-01-31T16:43:20;98726.72;;;1.99;65.67
50650;BME280;36621;60.058;30.346;2023-01-31T16:50:54;98755.53;;;2.04;65.60
50650;BME280;36621;60.058;30.346;2023-01-31T16:58:43;98767.97;;;2.20;66.94
50650;BME280;36621;60.058;30.346;2023-01-31T17:06:20;98773.84;;;2.07;65.03
50650;BME280;36621;60.058;30.346;2023-01-31T17:14:05;98773.06;;;2.12;65.36
50650;BME280;36621;60.058;30.346;2023-01-31T17:21:39;98766.31;;;2.04;63.88
50650;BME280;36621;60.058;30.346;2023-01-31T17:29:12;98759.72;;;1.74;63.54
50650;BME280;36621;60.058;30.346;2023-01-31T17:36:44;98802.34;;;1.93;63.22
50650;BME280;36621;60.058;30.346;2023-01-31T17:44:17;98801.28;;;1.99;63.70
50650;BME280;36621;60.058;30.346;2023-01-31T17:51:49;98771.88;;;1.82;63.26
50650;BME280;36621;60.058;30.346;2023-01-31T17:59:21;98816.38;;;2.05;62.99
50650;BME280;36621;60.058;30.346;2023-01-31T18:06:53;98789.97;;;1.97;62.17
50650;BME280;36621;60.058;30.346;2023-01-31T18:14:26;98833.63;;;2.04;62.55
50650;BME280;36621;60.058;30.346;2023-01-31T18:22:00;98808.34;;;1.57;62.68
50650;BME280;36621;60.058;30.346;2023-01-31T18:29:33;98846.03;;;1.62;63.97
50650;BME280;36621;60.058;30.346;2023-01-31T18:37:06;98721.44;;;0.66;64.53
50650;BME280;36621;60.058;30.346;2023-01-31T18:44:45;98849.34;;;1.37;64.36
50650;BME280;36621;60.058;30.346;2023-01-31T18:52:17;98845.59;;;1.38;64.25
50650;BME280;36621;60.058;30.346;2023-01-31T18:59:50;98846.13;;;1.35;64.03
50650;BME280;36621;60.058;30.346;2023-01-31T19:07:22;98863.06;;;1.35;64.12
50650;BME280;36621;60.058;30.346;2023-01-31T19:14:55;98787.50;;;0.94;64.08
50650;BME280;36621;60.058;30.346;2023-01-31T19:22:28;98846.06;;;1.25;63.10
50650;BME280;36621;60.058;30.346;2023-01-31T19:30:05;98851.91;;;1.16;64.35
50650;BME280;36621;60.058;30.346;2023-01-31T19:37:41;98788.75;;;0.54;63.57
50650;BME280;36621;60.058;30.346;2023-01-31T19:45:15;98802.38;;;0.47;63.74
50650;BME280;36621;60.058;30.346;2023-01-31T19:52:48;98885.56;;;0.92;63.60
50650;BME280;36621;60.058;30.346;2023-01-31T20:00:22;98821.84;;;0.92;63.32
50650;BME280;36621;60.058;30.346;2023-01-31T20:07:56;98860.56;;;1.24;62.54
50650;BME280;36621;60.058;30.346;2023-01-31T20:15:29;98865.19;;;1.01;62.25
50650;BME280;36621;60.058;30.346;2023-01-31T20:23:01;98890.94;;;0.92;62.87
50650;BME280;36621;60.058;30.346;2023-01-31T20:30:35;98896.47;;;0.80;63.34
50650;BME280;36621;60.058;30.346;2023-01-31T20:38:07;98867.94;;;0.51;63.33
50650;BME280;36621;60.058;30.346;2023-01-31T20:45:43;98848.56;;;0.72;63.50
50650;BME280;36621;60.058;30.346;2023-01-31T20:53:19;98898.13;;;1.13;62.20
50650;BME280;36621;60.058;30.346;2023-01-31T21:00:53;98931.78;;;1.53;62.04
50650;BME280;36621;60.058;30.346;2023-01-31T21:08:26;98859.50;;;1.25;61.77
50650;BME280;36621;60.058;30.346;2023-01-31T21:16:00;98904.44;;;1.67;62.00
50650;BME280;36621;60.058;30.346;2023-01-31T21:23:33;98934.69;;;1.84;60.96
50650;BME280;36621;60.058;30.346;2023-01-31T21:31:08;98917.19;;;1.82;62.40
50650;BME280;36621;60.058;30.346;2023-01-31T21:38:42;98947.44;;;1.99;63.86
50650;BME280;36621;60.058;30.346;2023-01-31T21:46:19;98943.34;;;1.91;64.83
50650;BME280;36621;60.058;30.346;2023-01-31T21:53:51;98890.59;;;1.48;65.45
50650;BME280;36621;60.058;30.346;2023-01-31T22:01:26;98961.13;;;1.93;65.38
50650;BME280;36621;60.058;30.346;2023-01-31T22:08:59;98960.88;;;1.94;65.16
50650;BME280;36621;60.058;30.346;2023-01-31T22:16:33;98970.31;;;1.97;65.98
50650;BME280;36621;60.058;30.346;2023-01-31T22:24:06;98959.97;;;1.83;65.81
50650;BME280;36621;60.058;30.346;2023-01-31T22:31:39;98928.84;;;1.55;66.02
50650;BME280;36621;60.058;30.346;2023-01-31T22:39:12;98915.06;;;1.46;65.72
50650;BME280;36621;60.058;30.346;2023-01-31T22:46:46;98994.22;;;1.88;66.47
50650;BME280;36621;60.058;30.346;2023-01-31T22:54:18;98966.13;;;1.79;65.83
50650;BME280;36621;60.058;30.346;2023-01-31T23:01:51;98978.94;;;1.99;67.28
50650;BME280;36621;60.058;30.346;2023-01-31T23:09:24;98959.13;;;1.78;66.51
50650;BME280;36621;60.058;30.346;2023-01-31T23:16:57;98926.50;;;1.64;67.09
50650;BME280;36621;60.058;30.346;2023-01-31T23:24:47;98905.97;;;1.52;67.27
50650;BME280;36621;60.058;30.346;2023-01-31T23:32:20;98932.41;;;1.66;67.17
50650;BME280;36621;60.058;30.346;2023-01-31T23:39:52;98966.41;;;1.77;67.51
50650;BME280;36621;60.058;30.346;2023-01-31T23:47:27;98994.56;;;2.02;67.17
50650;BME280;36621;60.058;30.346;2023-01-31T23:55:00;98999.94;;;2.02;67.43
